Time;durP1;ratioP1;P1;durP2;ratioP2;P2;SDS_P1;SDS_P2;PMS_P1;PMS_P2;Temp;Humidity;BMP_temperature;BMP_pressure;BME280_temperature;BME280_humidity;BME280_pressure;Samples;Min_cycle;Max_cycle;Signal;HPM_P1;HPM_P2
2022/06/19 00:01:21;;;;;;;12.02;9.27;;;;;;;15.92;86.29;99803.41;4953214;28;20034;-75
2022/06/19 00:03:51;;;;;;;12.73;9.68;;;;;;;15.85;86.38;99804.00;4953920;29;20043;-75
2022/06/19 00:06:18;;;;;;;11.32;9.00;;;;;;;16.21;86.13;99823.91;4953727;29;20662;-75
2022/06/19 00:08:45;;;;;;;14.30;8.48;;;;;;;16.42;85.68;99827.25;4936658;29;20097;-75
2022/06/19 00:11:12;;;;;;;16.77;9.52;;;;;;;16.41;84.22;99831.25;4950205;28;20157;-75
2022/06/19 00:13:38;;;;;;;19.00;10.77;;;;;;;16.12;83.68;99816.41;4973233;28;20082;-74
2022/06/19 00:16:04;;;;;;;24.45;11.43;;;;;;;16.02;84.09;99819.78;4971741;28;20056;-75
2022/06/19 00:18:29;;;;;;;18.02;10.90;;;;;;;15.75;85.00;99833.56;4973031;28;20031;-75
2022/06/19 00:20:55;;;;;;;16.85;10.35;;;;;;;15.06;87.93;99802.66;4971746;28;20485;-75
2022/06/19 00:23:20;;;;;;;28.55;11.77;;;;;;;15.04;88.88;99805.00;4972997;28;20031;-75
2022/06/19 00:25:46;;;;;;;17.40;12.00;;;;;;;15.13;89.37;99811.31;4972705;28;20023;-75
2022/06/19 00:28:12;;;;;;;19.17;11.60;;;;;;;15.18;88.88;99816.69;4957102;28;20050;-75
2022/06/19 00:30:38;;;;;;;17.40;11.55;;;;;;;15.15;89.36;99815.44;4936271;29;20027;-75
2022/06/19 00:33:03;;;;;;;23.60;12.30;;;;;;;14.73;89.60;99773.53;4953503;29;20035;-75
2022/06/19 00:35:30;;;;;;;21.35;12.70;;;;;;;14.81;91.74;99811.16;4952198;29;20076;-75
2022/06/19 00:37:56;;;;;;;19.00;14.25;;;;;;;14.66;92.04;99805.06;4953434;29;20102;-75
2022/06/19 00:40:24;;;;;;;14.82;12.65;;;;;;;14.64;92.49;99784.91;4936481;29;20053;-75
2022/06/19 00:42:50;;;;;;;20.10;12.57;;;;;;;14.70;92.97;99797.53;4936367;29;20078;-75
2022/06/19 00:45:41;;;;;;;21.88;11.98;;;;;;;14.85;93.13;99798.84;4967917;28;20035;-75
2022/06/19 00:48:14;;;;;;;23.58;12.48;;;;;;;14.95;92.36;99802.34;4973023;28;20098;-75
2022/06/19 00:50:40;;;;;;;17.20;12.20;;;;;;;15.04;91.19;99797.38;4972638;28;20054;-75
2022/06/19 00:53:11;;;;;;;26.65;12.80;;;;;;;15.11;91.35;99808.03;4972719;28;20474;-75
2022/06/19 00:55:41;;;;;;;22.23;12.30;;;;;;;15.24;89.72;99811.63;4956527;28;20125;-75
2022/06/19 00:58:11;;;;;;;20.70;11.00;;;;;;;15.35;89.33;99797.84;4976650;28;20030;-75
2022/06/19 01:00:38;;;;;;;;;;;;;;;15.58;88.53;99815.81;4958657;28;20039;-75
2022/06/19 01:03:10;;;;;;;13.75;11.05;;;;;;;15.71;88.88;99810.91;4957082;29;19918;-75
2022/06/19 01:05:38;;;;;;;15.23;10.98;;;;;;;15.58;88.25;99796.09;4957150;29;20066;-75
2022/06/19 01:08:04;;;;;;;14.60;10.75;;;;;;;15.42;88.18;99806.47;4939521;29;20035;-75
2022/06/19 01:10:33;;;;;;;20.73;11.20;;;;;;;14.99;89.26;99786.34;4955513;29;20027;-75
2022/06/19 01:12:59;;;;;;;14.15;10.23;;;;;;;14.82;91.45;99798.72;4939789;29;20565;-74
2022/06/19 01:15:26;;;;;;;15.73;11.40;;;;;;;14.82;92.25;99802.38;4939651;29;20433;-75
2022/06/19 01:18:05;;;;;;;14.93;10.85;;;;;;;15.02;91.75;99806.19;4959187;28;20432;-75
2022/06/19 01:20:33;;;;;;;14.60;10.93;;;;;;;15.33;91.57;99811.47;4976097;28;20030;-75
2022/06/19 01:23:23;;;;;;;14.73;10.15;;;;;;;15.50;90.93;99808.34;4976137;28;20438;-75
2022/06/19 01:25:50;;;;;;;33.50;11.20;;;;;;;15.61;89.00;99807.81;4975733;28;20030;-75
2022/06/19 01:31:19;;;;;;;11.35;9.07;;;;;;;14.96;90.15;99810.44;4976128;28;20038;-74
2022/06/19 01:33:49;;;;;;;16.52;10.68;;;;;;;14.97;90.60;99805.63;4975761;28;20504;-75
2022/06/19 01:36:19;;;;;;;10.23;9.15;;;;;;;15.01;90.16;99814.97;4958419;28;20026;-75
2022/06/19 01:38:49;;;;;;;13.15;10.73;;;;;;;15.11;90.21;99817.28;4974617;28;20154;-75
2022/06/19 01:41:21;;;;;;;10.77;9.57;;;;;;;15.27;90.16;99816.56;4958514;28;20043;-75
2022/06/19 01:43:47;;;;;;;13.15;9.25;;;;;;;15.46;89.65;99804.59;4975736;28;20030;-75
2022/06/19 01:46:15;;;;;;;10.43;9.32;;;;;;;15.69;88.34;99809.66;4974145;28;20042;-74
2022/06/19 01:48:41;;;;;;;10.40;9.40;;;;;;;15.76;88.00;99812.66;4974277;28;20054;-76
2022/06/19 01:51:08;;;;;;;8.68;7.75;;;;;;;16.00;87.88;99813.69;4975153;28;20113;-75
2022/06/19 01:53:45;;;;;;;13.27;8.65;;;;;;;16.04;86.19;99819.44;4957482;28;20034;-75
2022/06/19 01:56:12;;;;;;;9.40;8.27;;;;;;;16.11;86.72;99828.91;4938575;29;20023;-76
2022/06/19 01:58:48;;;;;;;15.63;9.68;;;;;;;15.65;86.51;99822.81;4938712;29;20392;-75
2022/06/19 02:01:13;;;;;;;11.63;8.55;;;;;;;15.48;86.98;99827.59;4955751;29;20050;-75
2022/06/19 02:03:49;;;;;;;11.52;8.35;;;;;;;15.49;88.08;99834.88;4956052;29;20458;-75
2022/06/19 02:06:19;;;;;;;10.85;9.45;;;;;;;15.43;87.54;99806.13;4938320;29;20030;-75
2022/06/19 02:08:46;;;;;;;13.57;9.15;;;;;;;15.41;87.71;99831.06;4940625;28;20042;-75
2022/06/19 02:11:16;;;;;;;10.50;8.77;;;;;;;15.65;87.46;99823.66;4975209;28;20039;-75
2022/06/19 02:13:43;;;;;;;10.50;8.70;;;;;;;15.92;87.29;99835.25;4974239;28;20113;-75
2022/06/19 02:16:13;;;;;;;12.95;8.13;;;;;;;15.95;86.94;99845.00;4973668;28;20117;-75
2022/06/19 02:18:42;;;;;;;10.77;8.68;;;;;;;15.89;86.71;99818.19;4973981;28;20031;-75
2022/06/19 02:21:14;;;;;;;14.68;9.80;;;;;;;15.42;85.60;99835.50;4973453;28;20037;-75
2022/06/19 02:23:39;;;;;;;13.38;10.35;;;;;;;14.99;88.44;99828.59;4974026;28;20425;-75
2022/06/19 02:26:09;;;;;;;15.50;10.18;;;;;;;14.59;89.99;99830.16;4974430;28;20027;-74
2022/06/19 02:28:36;;;;;;;17.95;9.85;;;;;;;14.65;90.72;99822.31;4973709;28;20058;-75
2022/06/19 02:31:03;;;;;;;13.75;9.85;;;;;;;14.66;89.67;99833.22;4957358;28;20066;-74
2022/06/19 02:33:31;;;;;;;11.88;9.07;;;;;;;14.75;89.43;99827.47;4973457;28;20061;-74
2022/06/19 02:35:57;;;;;;;19.15;9.23;;;;;;;14.92;88.44;99845.31;4973561;28;20071;-75
2022/06/19 02:38:23;;;;;;;19.77;9.55;;;;;;;14.81;88.13;99819.63;4974525;28;20030;-75
2022/06/19 02:40:57;;;;;;;13.07;9.52;;;;;;;14.77;89.18;99835.59;4957425;28;20031;-74
2022/06/19 02:43:30;;;;;;;17.10;10.50;;;;;;;14.55;88.86;99837.69;4962548;28;20046;-75
2022/06/19 02:45:56;;;;;;;10.63;9.48;;;;;;;14.50;90.30;99837.94;4954951;29;20035;-75
2022/06/19 02:48:24;;;;;;;18.45;9.10;;;;;;;14.46;89.88;99847.06;4955431;29;20052;-75
2022/06/19 02:50:49;;;;;;;14.07;10.00;;;;;;;14.78;90.48;99834.41;4953227;29;20051;-74
2022/06/19 02:53:16;;;;;;;13.40;9.50;;;;;;;14.71;88.72;99829.34;4955036;29;20031;-75
2022/06/19 02:55:41;;;;;;;11.82;10.27;;;;;;;14.37;89.90;99821.06;4955088;29;20483;-75
2022/06/19 02:58:08;;;;;;;14.95;9.90;;;;;;;14.11;90.54;99791.28;4954766;29;20034;-75
2022/06/19 03:00:34;;;;;;;15.02;10.52;;;;;;;14.21;90.75;99822.91;4957264;28;20038;-74
2022/06/19 03:03:11;;;;;;;16.23;11.57;;;;;;;14.14;91.27;99827.16;4969608;28;20114;-75
2022/06/19 03:05:37;;;;;;;12.90;11.05;;;;;;;14.09;92.03;99846.25;4953655;29;20031;-75
2022/06/19 03:08:02;;;;;;;16.45;11.60;;;;;;;13.79;93.45;99824.75;4953629;29;20038;-74
2022/06/19 03:10:30;;;;;;;16.85;12.10;;;;;;;13.93;94.02;99834.84;4981360;28;20474;-75
2022/06/19 03:12:59;;;;;;;13.32;11.93;;;;;;;13.91;93.46;99821.13;4970801;28;20146;-75
2022/06/19 03:15:25;;;;;;;20.60;11.98;;;;;;;13.90;93.89;99842.00;4956424;28;20036;-74
2022/06/19 03:17:50;;;;;;;21.88;11.85;;;;;;;13.87;94.19;99837.06;4973046;28;20022;-75
2022/06/19 03:20:20;;;;;;;18.88;12.80;;;;;;;13.92;94.48;99841.66;4973669;28;20030;-75
2022/06/19 03:22:45;;;;;;;12.45;10.85;;;;;;;13.84;94.62;99837.78;4956787;28;20034;-75
2022/06/19 03:25:11;;;;;;;13.00;10.98;;;;;;;13.96;95.42;99845.41;4972787;28;20027;-75
2022/06/19 03:27:37;;;;;;;15.57;11.95;;;;;;;13.96;95.71;99854.69;4972285;28;20035;-75
2022/06/19 03:30:03;;;;;;;20.17;13.15;;;;;;;13.88;95.73;99839.53;4973498;28;20042;-75
2022/06/19 03:32:29;;;;;;;22.08;12.82;;;;;;;13.91;96.41;99840.81;4949419;29;20615;-75
2022/06/19 03:34:55;;;;;;;17.45;13.45;;;;;;;13.82;96.43;99835.31;4954169;29;20052;-75
2022/06/19 03:37:21;;;;;;;21.45;13.23;;;;;;;13.80;96.42;99825.56;4954118;29;20028;-75
2022/06/19 03:39:47;;;;;;;17.67;11.80;;;;;;;13.80;96.52;99828.38;4968901;28;20118;-75
2022/06/19 03:42:15;;;;;;;18.60;12.80;;;;;;;13.92;96.67;99841.66;4954335;29;20119;-75
2022/06/19 03:44:41;;;;;;;23.75;13.70;;;;;;;13.76;96.93;99812.22;4954306;29;20086;-75
2022/06/19 03:47:07;;;;;;;19.33;12.80;;;;;;;13.85;96.49;99828.97;4952649;29;20479;-75
2022/06/19 03:49:32;;;;;;;14.10;11.38;;;;;;;13.99;96.69;99836.25;4936601;29;20058;-75
2022/06/19 03:51:58;;;;;;;19.08;13.52;;;;;;;14.01;96.64;99842.38;4951868;29;20055;-75
2022/06/19 03:54:24;;;;;;;19.35;12.43;;;;;;;14.11;96.19;99830.66;4953941;29;20046;-75
2022/06/19 03:56:50;;;;;;;15.70;11.73;;;;;;;14.23;96.55;99837.44;4952740;29;20043;-75
2022/06/19 03:59:16;;;;;;;15.80;12.75;;;;;;;14.22;96.05;99831.03;4936603;29;20055;-76
2022/06/19 04:01:42;;;;;;;18.77;13.65;;;;;;;14.31;96.48;99831.72;4952040;28;20081;-75
2022/06/19 04:04:08;;;;;;;15.60;13.13;;;;;;;14.45;96.02;99845.44;4953982;29;20123;-75
2022/06/19 04:06:36;;;;;;;17.73;13.23;;;;;;;14.52;95.57;99844.84;4936494;29;20099;-75
2022/06/19 04:09:03;;;;;;;19.10;12.60;;;;;;;14.58;95.78;99832.19;4953373;29;20529;-75
2022/06/19 04:11:29;;;;;;;20.02;13.25;;;;;;;14.55;95.10;99826.44;4953556;29;20027;-75
2022/06/19 04:13:56;;;;;;;15.20;12.90;;;;;;;14.59;94.75;99832.97;4953971;29;20446;-75
2022/06/19 04:16:25;;;;;;;19.00;13.85;;;;;;;14.62;95.12;99835.13;4953888;29;20027;-75
2022/06/19 04:18:53;;;;;;;15.03;12.30;;;;;;;14.78;95.29;99845.69;4953815;29;20113;-75
2022/06/19 04:21:22;;;;;;;19.52;13.00;;;;;;;14.91;95.93;99850.09;4953742;28;20402;-75
2022/06/19 04:23:49;;;;;;;16.17;13.18;;;;;;;15.02;96.06;99847.59;4953964;29;20051;-75
2022/06/19 04:26:16;;;;;;;17.10;12.57;;;;;;;15.11;95.47;99847.47;4969857;28;20125;-75
2022/06/19 04:28:43;;;;;;;19.67;12.77;;;;;;;15.18;94.67;99835.59;4955301;28;20162;-75
2022/06/19 04:31:09;;;;;;;12.82;11.32;;;;;;;15.24;93.43;99846.25;4972919;28;20054;-75
2022/06/19 04:33:38;;;;;;;20.02;12.32;;;;;;;15.28;91.47;99847.19;4939884;29;20046;-75
2022/06/19 04:36:14;;;;;;;13.47;10.30;;;;;;;15.39;91.75;99855.13;4957264;29;20030;-75
2022/06/19 04:38:42;;;;;;;14.05;11.07;;;;;;;15.48;90.75;99838.88;4940220;29;20825;-74
2022/06/19 04:41:26;;;;;;;14.75;11.95;;;;;;;15.55;89.87;99849.53;4940196;29;20042;-74
2022/06/19 04:43:52;;;;;;;17.25;12.20;;;;;;;15.51;89.63;99843.78;4957664;29;20193;-74
2022/06/19 04:46:18;;;;;;;19.85;12.38;;;;;;;15.67;90.71;99845.81;4957279;29;20035;-74
2022/06/19 04:48:45;;;;;;;16.40;12.35;;;;;;;15.82;90.77;99847.03;4972056;28;20034;-74
2022/06/19 04:51:12;;;;;;;17.00;11.80;;;;;;;16.02;90.68;99844.38;4959158;28;20510;-82
2022/06/19 04:54:02;;;;;;;14.18;11.90;;;;;;;16.26;89.14;99849.00;4976848;28;20034;-76
2022/06/19 04:56:28;;;;;;;13.93;11.20;;;;;;;16.30;86.88;99852.75;4976504;28;20073;-75
2022/06/19 04:58:53;;;;;;;17.80;11.52;;;;;;;16.34;88.61;99844.34;4954836;28;20067;-76
2022/06/19 05:01:31;;;;;;;14.38;11.98;;;;;;;16.51;88.64;99837.50;4974624;28;20050;-75
2022/06/19 05:04:00;;;;;;;15.82;11.15;;;;;;;16.61;85.08;99853.09;4959041;28;20039;-75
2022/06/19 05:06:27;;;;;;;12.75;10.20;;;;;;;16.58;84.28;99857.47;4976048;28;20098;-75
2022/06/19 05:08:52;;;;;;;12.55;11.15;;;;;;;16.76;85.87;99849.41;4953159;29;20536;-75
2022/06/19 05:11:19;;;;;;;10.82;9.73;;;;;;;16.80;84.53;99850.28;4939810;29;20122;-75
2022/06/19 05:13:45;;;;;;;11.00;9.88;;;;;;;16.89;83.24;99864.19;4955456;29;20027;-75
2022/06/19 05:16:16;;;;;;;11.00;9.18;;;;;;;16.93;84.25;99853.00;4955345;29;20036;-75
2022/06/19 05:18:43;;;;;;;11.65;9.77;;;;;;;17.08;84.67;99854.16;4964314;28;20093;-75
2022/06/19 05:21:09;;;;;;;11.55;10.38;;;;;;;17.26;83.85;99851.72;4966832;28;20570;-75
2022/06/19 05:23:36;;;;;;;15.57;9.32;;;;;;;17.44;81.92;99866.22;4956981;28;20490;-75
2022/06/19 05:26:07;;;;;;;14.48;8.95;;;;;;;17.38;79.30;99867.72;4948270;28;20082;-75
2022/06/19 05:28:34;;;;;;;10.13;9.07;;;;;;;17.50;80.28;99869.59;4975893;28;20033;-72
2022/06/19 05:31:00;;;;;;;10.20;9.13;;;;;;;17.73;80.61;99871.66;4958594;28;20094;-75
2022/06/19 05:33:27;;;;;;;14.13;10.43;;;;;;;17.83;80.43;99865.38;4956159;28;20028;-73
2022/06/19 05:35:53;;;;;;;11.27;10.07;;;;;;;17.92;80.27;99856.66;4959294;28;20034;-75
2022/06/19 05:38:19;;;;;;;11.27;9.63;;;;;;;18.08;80.90;99871.53;4949256;28;20038;-75
2022/06/19 05:40:45;;;;;;;13.05;9.30;;;;;;;18.29;80.07;99858.16;4962125;28;20031;-74
2022/06/19 05:48:42;;;;;;;9.90;8.88;;;;;;;18.95;76.39;99863.59;4993720;28;20050;-72
2022/06/19 05:51:10;;;;;;;16.35;8.63;;;;;;;19.06;75.36;99863.78;4994682;28;20448;-75
2022/06/19 05:53:39;;;;;;;13.32;7.65;;;;;;;19.24;74.87;99869.69;4977140;28;20122;-72
2022/06/19 05:56:05;;;;;;;11.43;7.55;;;;;;;19.39;72.50;99862.19;4985150;28;20027;-73
2022/06/19 05:58:31;;;;;;;8.30;7.32;;;;;;;19.48;71.95;99854.22;4957805;28;20034;-74
2022/06/19 06:00:56;;;;;;;10.13;7.18;;;;;;;19.62;70.16;99866.91;4981402;28;20129;-73
2022/06/19 06:03:23;;;;;;;8.68;6.70;;;;;;;19.77;70.93;99867.91;4994560;28;20117;-71
2022/06/19 06:05:50;;;;;;;9.77;6.85;;;;;;;19.96;70.32;99868.94;4976321;28;20037;-71
2022/06/19 06:08:17;;;;;;;6.88;6.18;;;;;;;20.04;68.46;99871.47;4993677;28;20034;-71
2022/06/19 06:10:43;;;;;;;9.10;6.55;;;;;;;20.11;67.58;99867.06;4994280;28;20460;-72
2022/06/19 06:13:09;;;;;;;7.35;6.30;;;;;;;20.15;67.17;99868.72;4992813;28;20049;-72
2022/06/19 06:15:34;;;;;;;23.60;7.82;;;;;;;20.27;67.06;99863.97;4994250;28;20026;-80
2022/06/19 06:18:01;;;;;;;71.70;13.07;;;;;;;20.43;65.06;99863.69;4994187;28;20027;-75
2022/06/19 06:20:27;;;;;;;374.98;40.88;;;;;;;20.57;65.24;99865.81;4993939;28;20366;-75
2022/06/19 06:22:53;;;;;;;18.02;7.00;;;;;;;20.66;64.84;99840.72;4983084;28;20108;-74
2022/06/19 06:25:18;;;;;;;7.75;6.95;;;;;;;20.68;65.27;99860.22;4998577;28;20023;-72
2022/06/19 06:27:44;;;;;;;389.92;41.95;;;;;;;20.59;64.85;99858.53;4993337;28;20033;-75
2022/06/19 06:30:12;;;;;;;10.35;6.65;;;;;;;20.67;64.73;99855.75;4993940;28;20083;-76
2022/06/19 06:32:38;;;;;;;10.05;6.43;;;;;;;20.75;62.01;99861.09;4976517;28;20030;-75
2022/06/19 06:35:04;;;;;;;11.15;6.15;;;;;;;20.79;63.39;99843.25;4976646;28;20449;-74
2022/06/19 06:37:31;;;;;;;16.77;7.35;;;;;;;20.78;61.47;99859.50;4976952;28;20048;-78
2022/06/19 06:39:57;;;;;;;7.70;6.65;;;;;;;20.77;63.95;99835.13;4976257;28;20026;-79
2022/06/19 06:42:22;;;;;;;6.88;6.28;;;;;;;21.08;62.71;99849.16;4972901;28;20030;-80
2022/06/19 06:44:48;;;;;;;7.53;6.43;;;;;;;21.02;62.85;99812.53;4990620;28;20041;-80
2022/06/19 06:47:13;;;;;;;6.95;6.32;;;;;;;21.35;63.00;99846.81;4988399;28;20051;-79
2022/06/19 06:49:39;;;;;;;7.90;7.10;;;;;;;21.22;62.42;99834.16;4971788;28;20042;-78
2022/06/19 06:52:08;;;;;;;7.50;6.40;;;;;;;21.38;61.55;99853.75;4958244;28;20030;-78
2022/06/19 06:54:38;;;;;;;11.27;7.15;;;;;;;21.52;60.11;99842.41;4952457;28;20122;-78
2022/06/19 06:57:06;;;;;;;10.50;6.28;;;;;;;21.70;60.23;99844.53;4953589;28;20023;-76
2022/06/19 06:59:33;;;;;;;9.27;7.55;;;;;;;21.85;60.02;99836.84;4979253;28;20378;-77
2022/06/19 07:01:59;;;;;;;10.05;6.97;;;;;;;22.05;58.95;99854.38;4970715;28;20054;-75
2022/06/19 07:04:25;;;;;;;8.23;6.75;;;;;;;22.22;62.02;99851.94;4957382;28;20034;-76
2022/06/19 07:06:50;;;;;;;10.10;7.25;;;;;;;22.36;59.68;99834.84;4989779;28;20031;-77
2022/06/19 07:09:16;;;;;;;10.52;6.90;;;;;;;22.52;58.00;99848.72;4961573;28;20046;-78
2022/06/19 07:11:43;;;;;;;6.22;5.72;;;;;;;22.09;57.81;99849.50;4969165;28;20123;-78
2022/06/19 07:14:10;;;;;;;8.75;6.57;;;;;;;22.48;60.42;99850.75;4972294;28;20030;-79
2022/06/19 07:16:36;;;;;;;6.72;6.13;;;;;;;22.89;56.63;99849.50;4969289;28;20022;-78
2022/06/19 07:19:02;;;;;;;9.02;5.88;;;;;;;23.01;55.12;99839.66;4986987;28;20037;-75
2022/06/19 07:21:28;;;;;;;12.52;6.38;;;;;;;23.18;54.96;99840.84;4978895;28;20073;-74
2022/06/19 07:23:54;;;;;;;7.78;5.57;;;;;;;23.26;55.03;99838.78;4977719;28;20022;-73
2022/06/19 07:26:21;;;;;;;11.88;6.82;;;;;;;23.02;54.59;99849.84;4965421;28;20030;-74
2022/06/19 07:28:47;;;;;;;6.97;5.13;;;;;;;22.69;53.06;99843.41;4961060;28;20057;-72
2022/06/19 07:31:13;;;;;;;7.80;5.22;;;;;;;22.60;53.58;99845.88;5006226;28;20093;-74
2022/06/19 07:33:39;;;;;;;5.38;4.85;;;;;;;22.95;53.41;99839.28;4975972;28;20030;-73
2022/06/19 07:36:07;;;;;;;6.18;5.28;;;;;;;22.97;52.99;99838.88;4992474;28;20032;-75
2022/06/19 07:38:32;;;;;;;4.97;4.50;;;;;;;23.11;50.93;99832.31;4992676;28;20030;-75
2022/06/19 07:40:58;;;;;;;6.32;4.15;;;;;;;23.47;51.42;99839.94;4978858;28;20101;-76
2022/06/19 07:43:24;;;;;;;4.93;4.53;;;;;;;23.53;50.48;99833.38;4991281;28;20538;-75
2022/06/19 07:45:50;;;;;;;7.32;3.80;;;;;;;23.59;47.92;99833.75;4972014;28;20022;-76
2022/06/19 07:51:00;;;;;;;24.23;3.78;;;;;;;24.47;46.84;99836.84;4998696;28;20149;-75
2022/06/19 07:53:25;;;;;;;5.28;3.30;;;;;;;24.25;42.06;99832.16;4997706;28;20041;-75
2022/06/19 07:55:51;;;;;;;3.78;3.00;;;;;;;24.58;44.52;99836.75;5000871;28;20039;-75
2022/06/19 07:58:16;;;;;;;3.30;2.95;;;;;;;24.48;42.39;99830.69;4988679;28;20425;-75
2022/06/19 08:00:42;;;;;;;3.28;2.60;;;;;;;23.93;40.82;99835.19;4967919;28;20038;-75
2022/06/19 08:03:07;;;;;;;5.80;2.55;;;;;;;24.19;41.18;99830.13;4976865;28;20030;-80
2022/06/19 08:05:36;;;;;;;9.45;4.03;;;;;;;24.56;46.04;99824.94;4967353;28;20126;-74
2022/06/19 08:08:05;;;;;;;5.70;2.90;;;;;;;24.52;43.46;99828.63;4964541;28;20030;-76
2022/06/19 08:10:36;;;;;;;5.75;2.85;;;;;;;23.62;42.28;99829.28;4979132;28;20053;-76
2022/06/19 08:13:02;;;;;;;4.07;3.65;;;;;;;24.24;45.31;99838.28;4950736;28;20126;-77
2022/06/19 08:15:30;;;;;;;4.47;3.80;;;;;;;24.66;46.61;99832.59;4998845;28;20412;-76
2022/06/19 08:17:56;;;;;;;5.68;4.00;;;;;;;24.94;45.30;99834.38;4999178;28;20326;-78
2022/06/19 08:20:22;;;;;;;6.03;3.05;;;;;;;25.28;43.69;99829.88;4996051;28;20056;-75
2022/06/19 08:22:48;;;;;;;3.70;3.08;;;;;;;24.70;40.97;99824.78;4956662;28;20144;-75
2022/06/19 08:25:18;;;;;;;4.15;2.22;;;;;;;25.10;40.59;99818.66;5000374;28;20100;-77
2022/06/19 08:27:47;;;;;;;2.80;2.25;;;;;;;25.05;42.02;99819.94;4975972;28;20396;-75
2022/06/19 08:30:17;;;;;;;2.35;2.15;;;;;;;25.18;38.14;99819.38;4994585;28;20030;-75
2022/06/19 08:32:42;;;;;;;4.00;1.83;;;;;;;25.41;38.93;99815.00;4999784;28;20029;-73
2022/06/19 08:35:08;;;;;;;3.10;2.10;;;;;;;25.82;39.53;99818.97;4993197;28;20405;-75
2022/06/19 08:37:36;;;;;;;4.70;2.33;;;;;;;25.70;37.93;99821.19;4999633;28;20112;-77
2022/06/19 08:40:15;;;;;;;6.90;3.25;;;;;;;25.84;37.89;99814.44;4981042;28;20026;-75
2022/06/19 08:42:49;;;;;;;3.67;3.33;;;;;;;26.17;40.05;99817.59;4968865;28;20110;-75
2022/06/19 08:45:24;;;;;;;4.38;2.88;;;;;;;26.13;39.74;99816.84;4955949;28;20117;-75
2022/06/19 08:48:10;;;;;;;5.70;3.20;;;;;;;26.07;38.33;99812.88;4971432;28;20043;-78
2022/06/19 08:50:50;;;;;;;6.53;2.63;;;;;;;26.31;40.08;99813.72;4978791;28;20109;-74
2022/06/19 08:53:25;;;;;;;5.47;2.20;;;;;;;26.45;40.14;99812.66;5005707;28;20087;-76
2022/06/19 08:56:13;;;;;;;3.15;2.70;;;;;;;26.31;38.74;99807.19;4965344;28;20031;-76
2022/06/19 08:58:54;;;;;;;5.05;1.77;;;;;;;25.58;34.79;99811.13;4986259;28;20105;-74
2022/06/19 09:01:37;;;;;;;3.17;2.95;;;;;;;26.23;38.06;99802.81;4976884;28;20090;-74
2022/06/19 09:10:49;;;;;;;7.13;2.60;;;;;;;26.78;37.05;99800.59;4991257;28;20079;-74
2022/06/19 09:13:40;;;;;;;2.58;1.70;;;;;;;26.98;35.26;99803.50;4978270;28;20033;-74
2022/06/19 09:16:31;;;;;;;2.17;1.70;;;;;;;26.42;33.91;99795.53;4979354;28;20109;-74
2022/06/19 09:19:27;;;;;;;2.15;1.95;;;;;;;26.84;35.82;99803.75;4993646;28;20401;-74
2022/06/19 09:22:17;;;;;;;3.15;2.08;;;;;;;26.49;36.59;99795.41;4982003;28;20026;-74
2022/06/19 09:25:10;;;;;;;7.25;2.03;;;;;;;26.87;35.43;99794.31;4996826;28;20049;-73
2022/06/19 09:27:56;;;;;;;3.55;1.98;;;;;;;26.75;34.69;99776.44;4995737;28;20038;-73
2022/06/19 09:30:37;;;;;;;2.50;1.63;;;;;;;26.77;34.53;99794.03;4994403;28;20102;-75
2022/06/19 09:33:15;;;;;;;3.50;1.88;;;;;;;26.89;35.21;99798.34;4964662;28;20070;-73
2022/06/19 09:35:57;;;;;;;1.95;1.75;;;;;;;26.87;33.50;99785.69;4992882;28;20136;-74
2022/06/19 09:38:51;;;;;;;3.75;2.17;;;;;;;26.54;33.83;99785.47;5005584;28;20093;-73
2022/06/19 09:41:22;;;;;;;1.85;1.70;;;;;;;26.70;33.50;99797.06;4992923;28;20021;-74
2022/06/19 09:43:58;;;;;;;3.08;1.70;;;;;;;26.73;33.78;99799.03;4983902;28;20480;-74
2022/06/19 09:46:43;;;;;;;1.70;1.60;;;;;;;26.61;32.46;99788.22;4988421;28;20497;-73
2022/06/19 09:49:28;;;;;;;3.33;1.90;;;;;;;26.05;32.94;99778.09;4977923;28;20034;-73
2022/06/19 09:55:43;;;;;;;2.95;2.03;;;;;;;27.06;34.58;99786.94;4995560;28;20073;-74
2022/06/19 09:58:24;;;;;;;3.97;1.80;;;;;;;27.21;36.10;99775.16;4973426;28;20034;-73
2022/06/19 10:00:55;;;;;;;4.32;1.95;;;;;;;27.46;36.66;99772.56;4977691;28;20484;-75
2022/06/19 10:03:58;;;;;;;3.17;2.13;;;;;;;27.59;37.10;99764.09;4958136;28;20396;-80
2022/06/19 10:06:36;;;;;;;4.63;2.15;;;;;;;27.76;35.55;99772.75;4975316;28;20470;-80
2022/06/19 10:09:11;;;;;;;2.90;1.80;;;;;;;27.56;31.77;99764.16;4980097;28;20034;-75
2022/06/19 10:11:41;;;;;;;4.00;1.65;;;;;;;27.56;34.02;99758.41;4977216;28;20050;-79
2022/06/19 10:14:24;;;;;;;7.63;2.00;;;;;;;27.63;32.34;99760.31;4977085;28;20030;-76
2022/06/19 10:17:04;;;;;;;12.98;1.88;;;;;;;27.53;35.66;99756.41;4994506;28;20029;-77
2022/06/19 10:19:52;;;;;;;5.78;1.83;;;;;;;27.66;32.56;99743.00;4991363;28;20022;-74
2022/06/19 10:22:39;;;;;;;1.60;1.50;;;;;;;27.87;33.58;99756.06;4966781;28;20031;-78
2022/06/19 10:25:36;;;;;;;2.00;1.70;;;;;;;28.02;33.22;99752.81;4971635;28;20030;-75
2022/06/19 10:28:33;;;;;;;3.22;2.13;;;;;;;28.24;32.79;99755.19;4975631;28;20101;-80
2022/06/19 10:31:29;;;;;;;11.52;1.70;;;;;;;28.13;32.31;99741.84;4957710;28;20037;-77
2022/06/19 10:34:11;;;;;;;5.05;1.80;;;;;;;27.73;31.27;99742.00;4957494;28;20034;-74
2022/06/19 10:36:47;;;;;;;2.33;1.58;;;;;;;27.41;31.33;99737.81;4974547;28;20162;-80
2022/06/19 10:39:31;;;;;;;6.32;1.95;;;;;;;26.85;30.55;99739.38;4957356;28;20742;-77
2022/06/19 10:42:15;;;;;;;4.75;1.73;;;;;;;27.28;35.61;99723.34;4974564;28;20026;-73
2022/06/19 10:45:01;;;;;;;2.17;1.90;;;;;;;27.35;33.95;99733.84;4956829;28;20023;-76
2022/06/19 10:47:32;;;;;;;2.30;1.90;;;;;;;27.24;33.31;99729.16;4956921;28;20470;-76
2022/06/19 10:49:58;;;;;;;5.35;2.38;;;;;;;27.23;32.96;99727.53;4973606;28;20035;-72
2022/06/19 10:52:53;;;;;;;8.07;2.45;;;;;;;27.20;32.82;99722.69;4974134;28;20083;-75
2022/06/19 10:55:49;;;;;;;6.70;2.00;;;;;;;27.23;32.33;99718.94;4974384;28;20043;-74
2022/06/19 10:58:22;;;;;;;1.60;1.50;;;;;;;27.23;31.77;99715.25;4974150;28;20015;-76
2022/06/19 11:00:56;;;;;;;2.95;1.83;;;;;;;27.40;32.96;99718.97;4973962;28;20407;-77
2022/06/19 11:06:29;;;;;;;7.22;1.30;;;;;;;27.40;29.88;99708.28;4974233;28;20525;-73
2022/06/19 11:09:03;;;;;;;3.22;1.40;;;;;;;27.55;32.12;99707.97;4973327;28;20031;-72
2022/06/19 11:11:32;;;;;;;3.53;1.67;;;;;;;27.27;32.04;99713.09;4977541;28;20085;-73
2022/06/19 11:14:11;;;;;;;12.38;2.88;;;;;;;27.57;33.24;99709.16;4960886;28;20493;-72
2022/06/19 11:17:00;;;;;;;6.55;1.80;;;;;;;27.72;33.05;99711.69;4979123;28;20030;-76
2022/06/19 11:19:40;;;;;;;5.53;1.50;;;;;;;27.56;35.01;99709.59;4961738;28;20528;-76
2022/06/19 11:22:31;;;;;;;3.15;1.90;;;;;;;27.51;32.59;99713.78;4982645;28;20030;-74
2022/06/19 11:25:23;;;;;;;2.25;1.65;;;;;;;27.50;35.59;99715.03;4959330;28;20424;-73
2022/06/19 11:28:04;;;;;;;5.95;1.85;;;;;;;27.91;37.44;99701.34;4977761;28;20031;-72
2022/06/19 11:30:40;;;;;;;7.13;1.88;;;;;;;28.03;32.94;99702.69;4955713;28;20052;-76
2022/06/19 11:33:16;;;;;;;1.80;1.55;;;;;;;27.70;32.82;99671.09;4959146;28;20022;-74
2022/06/19 11:35:57;;;;;;;4.22;2.00;;;;;;;27.24;31.30;99688.97;4971663;28;20038;-76
2022/06/19 11:38:49;;;;;;;2.10;1.65;;;;;;;27.15;33.79;99697.38;4963547;28;20406;-73
2022/06/19 11:41:23;;;;;;;4.80;1.80;;;;;;;27.58;34.38;99696.41;4979582;28;20026;-72
2022/06/19 11:44:20;;;;;;;4.95;1.48;;;;;;;27.69;32.92;99704.75;4955472;28;20038;-75
2022/06/19 11:46:55;;;;;;;4.75;2.13;;;;;;;27.13;31.46;99700.69;4957409;28;20079;-73
2022/06/19 11:49:36;;;;;;;2.67;1.70;;;;;;;27.38;33.92;99679.22;4953956;28;20496;-74
2022/06/19 11:52:06;;;;;;;5.15;2.42;;;;;;;27.49;34.40;99686.78;4955573;28;20030;-73
2022/06/19 11:54:40;;;;;;;4.88;2.20;;;;;;;27.45;34.58;99695.47;4989423;28;20157;-73
2022/06/19 11:57:27;;;;;;;2.72;1.73;;;;;;;27.37;35.39;99676.78;4972567;28;20066;-76
2022/06/19 11:59:57;;;;;;;3.05;1.65;;;;;;;27.28;35.71;99669.63;4986957;28;20037;-74
2022/06/19 12:02:44;;;;;;;1.92;1.73;;;;;;;27.32;36.54;99640.78;4991054;28;20472;-73
2022/06/19 12:05:21;;;;;;;2.05;1.77;;;;;;;27.41;36.20;99669.69;4987792;28;20393;-72
2022/06/19 12:07:47;;;;;;;3.25;1.83;;;;;;;27.57;35.06;99671.81;4963468;28;20121;-71
2022/06/19 12:10:26;;;;;;;2.05;1.70;;;;;;;27.84;34.68;99667.84;4972796;28;20066;-72